createdAt,value
2023-05-11T00:05:39.054Z,99
2023-05-11T00:15:38.980Z,99
2023-05-11T00:25:38.915Z,99
2023-05-11T00:35:38.956Z,99
2023-05-11T00:45:38.735Z,99
2023-05-11T00:55:38.754Z,99
2023-05-11T01:05:38.617Z,99
2023-05-11T01:15:38.539Z,99
2023-05-11T01:25:38.506Z,98
2023-05-11T01:35:38.389Z,74
2023-05-11T01:45:38.362Z,56
2023-05-11T01:55:38.268Z,62
2023-05-11T02:05:38.344Z,46
2023-05-11T02:15:38.169Z,58
2023-05-11T02:25:38.121Z,48
2023-05-11T02:35:38.011Z,51
2023-05-11T02:45:37.962Z,49
2023-05-11T02:55:37.876Z,44
2023-05-11T03:05:37.827Z,73
2023-05-11T03:15:37.846Z,93
2023-05-11T03:25:37.718Z,87
2023-05-11T03:35:37.621Z,81
2023-05-11T03:45:37.516Z,68
2023-05-11T03:55:37.518Z,60
2023-05-11T04:05:37.367Z,39
2023-05-11T04:15:37.309Z,58
2023-05-11T04:25:37.279Z,51
2023-05-11T04:35:37.226Z,35
2023-05-11T04:45:37.115Z,50
2023-05-11T04:55:37.035Z,58
2023-05-11T05:05:37.172Z,77
2023-05-11T05:15:37.055Z,99
2023-05-11T05:25:36.882Z,99
2023-05-11T05:35:37.021Z,99
2023-05-11T05:45:36.886Z,99
2023-05-11T05:55:36.658Z,99
2023-05-11T06:05:36.727Z,99
2023-05-11T06:15:36.703Z,99
2023-05-11T06:25:36.634Z,99
2023-05-11T06:35:37.050Z,99
2023-05-11T06:45:36.756Z,99
2023-05-11T06:55:36.439Z,99
2023-05-11T07:05:36.313Z,99
2023-05-11T07:15:36.083Z,99
2023-05-11T07:25:36.099Z,99
2023-05-11T07:35:35.945Z,99
2023-05-11T07:45:35.892Z,99
2023-05-11T07:55:35.827Z,99
2023-05-11T08:05:35.748Z,99
2023-05-11T08:15:35.719Z,99
2023-05-11T08:25:35.630Z,99
2023-05-11T08:35:35.559Z,99
2023-05-11T08:45:35.523Z,99
2023-05-11T08:55:35.449Z,99
2023-05-11T09:05:35.426Z,1
2023-05-11T09:15:37.021Z,1
2023-05-11T09:25:35.371Z,1
2023-05-11T09:35:35.179Z,1
2023-05-11T09:45:35.248Z,1
2023-05-11T09:55:35.066Z,1
2023-05-11T10:05:35.005Z,1
2023-05-11T10:15:34.872Z,1
2023-05-11T10:25:34.863Z,1
2023-05-11T10:35:34.757Z,1
2023-05-11T10:45:34.858Z,1
2023-05-11T10:55:34.777Z,1
2023-05-11T11:05:34.729Z,1
2023-05-11T11:15:34.593Z,1
2023-05-11T11:25:34.629Z,1
2023-05-11T11:35:34.392Z,1
2023-05-11T11:45:34.484Z,1
2023-05-11T11:55:34.224Z,1
2023-05-11T12:05:34.334Z,1
2023-05-11T12:15:34.148Z,1
2023-05-11T12:25:34.030Z,1
2023-05-11T12:35:33.966Z,1
2023-05-11T12:45:34.012Z,1
2023-05-11T12:55:33.806Z,1
2023-05-11T13:05:33.853Z,1
2023-05-11T13:15:33.891Z,1
2023-05-11T13:25:33.756Z,1
2023-05-11T13:35:33.654Z,1
2023-05-11T13:45:33.549Z,1
2023-05-11T13:55:33.557Z,1
2023-05-11T14:05:33.355Z,1
2023-05-11T14:15:33.366Z,1
2023-05-11T14:25:33.215Z,1
2023-05-11T14:35:33.165Z,1
2023-05-11T14:45:33.188Z,1
2023-05-11T14:55:33.025Z,1
2023-05-11T15:05:32.972Z,1
2023-05-11T15:15:32.895Z,1
2023-05-11T15:25:32.854Z,1
2023-05-11T15:35:32.780Z,1
2023-05-11T15:45:32.974Z,1
2023-05-11T15:55:32.716Z,1
2023-05-11T16:05:32.629Z,1
2023-05-11T16:15:32.512Z,1
2023-05-11T16:25:32.465Z,1
2023-05-11T16:35:32.372Z,1
2023-05-11T16:45:32.377Z,1
2023-05-11T16:55:32.247Z,1
2023-05-11T17:05:32.180Z,1
2023-05-11T17:15:32.098Z,1
2023-05-11T17:25:32.049Z,1
2023-05-11T17:35:31.961Z,1
2023-05-11T17:45:31.964Z,1
2023-05-11T17:55:31.856Z,1
2023-05-11T18:05:44.716Z,1
2023-05-11T18:15:31.984Z,1
2023-05-11T18:25:31.835Z,1
2023-05-11T18:35:31.551Z,1
2023-05-11T18:45:31.511Z,1
2023-05-11T18:55:41.092Z,1
2023-05-11T19:05:31.443Z,1
2023-05-11T19:15:31.326Z,1
2023-05-11T19:25:31.278Z,1
2023-05-11T19:35:31.232Z,1
2023-05-11T19:45:31.216Z,1
2023-05-11T19:47:49.987Z,1
2023-05-11T19:52:25.036Z,1
2023-05-11T20:02:24.701Z,1
2023-05-11T20:12:24.518Z,1
2023-05-11T20:22:24.426Z,1
2023-05-11T20:32:24.490Z,1
2023-05-11T20:42:24.396Z,1
2023-05-11T20:52:24.236Z,1
2023-05-11T21:02:24.259Z,1
2023-05-11T21:12:24.211Z,1
2023-05-11T21:22:24.033Z,1
2023-05-11T21:32:24.056Z,1
2023-05-11T21:42:23.888Z,1
2023-05-11T21:52:23.854Z,1
2023-05-11T22:02:23.802Z,1
2023-05-11T22:12:23.728Z,1
2023-05-11T22:22:23.638Z,1
2023-05-11T22:32:23.561Z,99
2023-05-11T22:42:23.554Z,99
2023-05-11T22:52:23.411Z,99
2023-05-11T23:02:23.502Z,99
2023-05-11T23:12:23.274Z,99
2023-05-11T23:22:23.203Z,99
2023-05-11T23:32:23.219Z,99
2023-05-11T23:42:23.115Z,99
2023-05-11T23:52:23.046Z,99
